Time;durP1;ratioP1;P1;durP2;ratioP2;P2;SDS_P1;SDS_P2;PMS_P1;PMS_P2;Temp;Humidity;BMP_temperature;BMP_pressure;BME280_temperature;BME280_humidity;BME280_pressure;Samples;Min_cycle;Max_cycle;Signal;HPM_P1;HPM_P2
2022/11/20 05:01:41;;;;;;;1.45;0.20;;;7.70;83.60;;;;;;5579127;23;89164;-74
2022/11/20 05:04:07;;;;;;;1.05;0.20;;;7.60;83.10;;;;;;4801597;29;87131;-75
2022/11/20 05:06:33;;;;;;;3.17;0.20;;;7.60;83.00;;;;;;4799307;29;86330;-76
2022/11/20 05:08:59;;;;;;;4.22;0.20;;;7.60;83.20;;;;;;4798808;29;86978;-77
2022/11/20 05:11:25;;;;;;;1.95;0.20;;;7.70;83.00;;;;;;4800297;29;87829;-76
2022/11/20 05:13:51;;;;;;;2.10;0.20;;;7.70;83.50;;;;;;4797351;29;87245;-76
2022/11/20 05:16:20;;;;;;;1.65;0.30;;;7.80;83.70;;;;;;4797143;29;87323;-75
2022/11/20 05:18:46;;;;;;;2.05;0.20;;;7.80;83.50;;;;;;4803026;29;87053;-77
2022/11/20 05:21:13;;;;;;;1.35;0.38;;;7.90;82.60;;;;;;4805266;29;86274;-76
2022/11/20 05:23:39;;;;;;;2.00;0.30;;;7.90;83.50;;;;;;4798715;29;87137;-76
2022/11/20 05:26:06;;;;;;;1.88;0.40;;;7.90;82.70;;;;;;4796226;29;87251;-77
2022/11/20 05:28:33;;;;;;;1.30;0.20;;;8.00;83.30;;;;;;4795457;29;87511;-77
2022/11/20 05:31:09;;;;;;;1.83;0.20;;;8.00;83.70;;;;;;4801539;29;86376;-77
2022/11/20 05:33:36;;;;;;;1.20;0.20;;;8.00;83.40;;;;;;4800691;29;86569;-76
2022/11/20 05:36:03;;;;;;;0.93;0.20;;;8.00;82.10;;;;;;4808742;29;87678;-75
2022/11/20 05:38:29;;;;;;;2.25;0.20;;;8.10;82.30;;;;;;4800422;29;88157;-76
2022/11/20 05:40:55;;;;;;;2.58;0.30;;;8.10;81.30;;;;;;4811986;29;86557;-75
2022/11/20 05:43:20;;;;;;;2.22;0.10;;;8.10;81.10;;;;;;4805850;29;86874;-76
2022/11/20 05:45:55;;;;;;;1.10;0.10;;;8.20;80.90;;;;;;4800957;29;87269;-76
2022/11/20 05:48:21;;;;;;;1.13;0.10;;;8.20;80.50;;;;;;4799090;29;87870;-77
2022/11/20 05:50:48;;;;;;;2.53;0.20;;;8.20;80.30;;;;;;4807779;29;86750;-77
2022/11/20 05:53:13;;;;;;;2.17;0.25;;;8.20;80.90;;;;;;4807135;29;85702;-77
2022/11/20 05:55:39;;;;;;;3.00;0.35;;;8.20;80.80;;;;;;4799351;29;86907;-76
2022/11/20 05:58:05;;;;;;;2.08;0.28;;;8.30;80.20;;;;;;4804129;29;87271;-75
2022/11/20 06:00:30;;;;;;;1.80;0.50;;;8.20;80.50;;;;;;4800561;29;87377;-77
2022/11/20 06:02:56;;;;;;;3.35;0.40;;;8.20;80.50;;;;;;4804543;29;86963;-76
2022/11/20 06:05:22;;;;;;;2.75;0.30;;;8.20;81.10;;;;;;4802674;29;87744;-75
2022/11/20 06:07:47;;;;;;;1.48;0.20;;;8.20;81.60;;;;;;4810253;29;86303;-75
2022/11/20 06:10:13;;;;;;;1.42;0.20;;;8.10;81.30;;;;;;4798433;29;87193;-76
2022/11/20 06:12:38;;;;;;;1.70;0.20;;;8.10;80.50;;;;;;4806625;29;87236;-76
2022/11/20 06:15:05;;;;;;;2.22;0.20;;;8.10;81.20;;;;;;4799142;29;86569;-76
2022/11/20 06:17:31;;;;;;;2.03;0.20;;;8.10;81.30;;;;;;4801495;29;89553;-74
2022/11/20 06:19:57;;;;;;;1.52;0.25;;;8.10;81.30;;;;;;4801834;29;86627;-74
2022/11/20 06:22:22;;;;;;;3.75;0.20;;;8.00;82.10;;;;;;4795768;29;86924;-76
2022/11/20 06:24:48;;;;;;;1.20;0.30;;;8.00;82.60;;;;;;4792875;29;88253;-74
2022/11/20 06:27:14;;;;;;;1.50;0.30;;;8.00;83.20;;;;;;4806883;29;87675;-74
2022/11/20 06:29:39;;;;;;;1.80;0.40;;;8.00;84.00;;;;;;4794322;29;86480;-74
2022/11/20 06:32:05;;;;;;;1.77;0.50;;;7.90;84.50;;;;;;4806178;29;86944;-74
2022/11/20 06:34:30;;;;;;;2.42;0.55;;;7.90;85.60;;;;;;4799946;29;87177;-74
2022/11/20 06:36:56;;;;;;;2.72;0.65;;;7.80;86.90;;;;;;4801599;29;87234;-76
2022/11/20 06:39:22;;;;;;;2.63;0.60;;;7.90;86.40;;;;;;4800946;29;87027;-76
2022/11/20 06:41:47;;;;;;;1.45;0.52;;;7.90;86.60;;;;;;4799411;29;85814;-75
2022/11/20 06:44:13;;;;;;;4.40;0.77;;;7.90;87.00;;;;;;4802511;29;86959;-75
2022/11/20 06:46:38;;;;;;;2.88;0.88;;;7.90;86.70;;;;;;4798365;29;87109;-75
2022/11/20 06:49:04;;;;;;;2.47;0.50;;;7.90;87.20;;;;;;4796342;29;87324;-75
2022/11/20 06:51:30;;;;;;;3.65;0.80;;;8.00;86.70;;;;;;4793611;29;86884;-77
2022/11/20 06:53:56;;;;;;;3.15;0.57;;;8.00;86.70;;;;;;4794915;29;87215;-75
2022/11/20 06:56:21;;;;;;;3.42;0.70;;;8.00;86.60;;;;;;4800131;29;87853;-75
2022/11/20 06:58:47;;;;;;;1.92;0.60;;;8.00;87.10;;;;;;4801063;29;86623;-75
2022/11/20 07:01:14;;;;;;;2.28;0.50;;;8.00;87.70;;;;;;4803234;29;88317;-75
2022/11/20 07:03:41;;;;;;;2.50;0.50;;;8.00;88.40;;;;;;4808155;29;87680;-76
2022/11/20 07:06:07;;;;;;;2.50;0.50;;;8.00;87.80;;;;;;4802114;29;86832;-75
2022/11/20 07:08:33;;;;;;;2.67;0.60;;;8.00;88.20;;;;;;4804698;29;87730;-75
2022/11/20 07:11:01;;;;;;;2.58;0.50;;;8.00;88.40;;;;;;4802462;29;87345;-74
2022/11/20 07:13:30;;;;;;;2.47;0.40;;;8.00;88.00;;;;;;4794094;29;87966;-74
2022/11/20 07:16:00;;;;;;;2.53;0.55;;;8.00;88.50;;;;;;4794981;29;87808;-74
2022/11/20 07:18:26;;;;;;;2.28;0.32;;;8.00;88.40;;;;;;4793027;29;86660;-74
2022/11/20 07:20:52;;;;;;;2.05;0.63;;;8.00;88.90;;;;;;4798043;29;87077;-74
2022/11/20 07:23:18;;;;;;;1.85;0.40;;;8.00;88.80;;;;;;4798631;29;87143;-75
2022/11/20 07:25:44;;;;;;;1.60;0.40;;;8.00;88.30;;;;;;4802011;29;87071;-74
2022/11/20 07:28:10;;;;;;;2.15;0.55;;;8.00;89.10;;;;;;4799689;29;87024;-74
2022/11/20 07:30:36;;;;;;;2.20;0.63;;;8.00;89.70;;;;;;4797762;29;85527;-76
2022/11/20 07:33:02;;;;;;;2.05;0.50;;;8.10;89.80;;;;;;4794099;29;87619;-74
2022/11/20 07:35:27;;;;;;;2.42;0.63;;;8.10;89.50;;;;;;4801620;29;86950;-75
2022/11/20 07:37:53;;;;;;;2.55;0.50;;;8.10;87.70;;;;;;4800234;29;90200;-75
2022/11/20 07:40:19;;;;;;;2.53;0.60;;;8.10;87.30;;;;;;4798811;29;86336;-75
2022/11/20 07:42:49;;;;;;;2.72;0.70;;;8.20;87.40;;;;;;4796288;29;87767;-75
2022/11/20 07:45:16;;;;;;;3.03;0.40;;;8.20;87.10;;;;;;4801919;29;87055;-75
2022/11/20 07:47:41;;;;;;;2.40;0.60;;;8.30;87.00;;;;;;4800267;29;87159;-75
2022/11/20 07:50:07;;;;;;;1.80;0.40;;;8.30;86.30;;;;;;4801398;29;87289;-74
2022/11/20 07:52:33;;;;;;;2.28;0.40;;;8.40;85.40;;;;;;4802965;29;87630;-74
2022/11/20 07:54:58;;;;;;;2.45;0.40;;;8.50;85.80;;;;;;4791035;29;86962;-74
2022/11/20 07:57:24;;;;;;;2.15;0.50;;;8.60;86.20;;;;;;4798175;29;86942;-73
2022/11/20 07:59:50;;;;;;;2.22;0.68;;;8.60;85.80;;;;;;4803553;29;86445;-74
2022/11/20 08:02:15;;;;;;;2.42;0.60;;;8.60;84.60;;;;;;4801012;29;87725;-73
2022/11/20 08:04:41;;;;;;;2.15;0.75;;;8.70;84.00;;;;;;4806414;29;87360;-74
2022/11/20 08:07:07;;;;;;;1.85;0.60;;;8.70;85.30;;;;;;4801318;29;86714;-75
2022/11/20 08:09:32;;;;;;;3.05;0.82;;;8.80;84.80;;;;;;4806882;29;87111;-74
2022/11/20 08:14:42;;;;;;;2.97;0.82;;;8.90;83.20;;;;;;4804301;29;87651;-75
2022/11/20 08:17:08;;;;;;;3.25;0.80;;;8.90;84.10;;;;;;4804021;29;86381;-75
2022/11/20 08:19:33;;;;;;;3.28;0.60;;;9.00;83.80;;;;;;4798125;29;85652;-75
2022/11/20 08:21:59;;;;;;;3.33;1.08;;;9.00;83.40;;;;;;4797771;29;87780;-75
2022/11/20 08:24:26;;;;;;;6.00;1.27;;;9.10;82.60;;;;;;4797993;29;86884;-76
2022/11/20 08:26:52;;;;;;;5.30;1.70;;;9.10;83.40;;;;;;4800807;29;87924;-75
2022/11/20 08:29:18;;;;;;;6.20;1.85;;;9.10;83.10;;;;;;4807817;29;88757;-75
2022/11/20 08:31:44;;;;;;;4.45;1.45;;;9.20;84.00;;;;;;4803028;29;88109;-75
2022/11/20 08:34:09;;;;;;;4.88;1.23;;;9.20;83.20;;;;;;4796549;29;88404;-75
2022/11/20 08:36:35;;;;;;;4.07;1.00;;;9.20;83.50;;;;;;4800040;29;87045;-75
2022/11/20 08:39:01;;;;;;;2.78;0.90;;;9.20;82.90;;;;;;4802094;29;87162;-76
2022/11/20 08:41:30;;;;;;;2.63;0.80;;;9.30;82.60;;;;;;4798554;29;87099;-75
2022/11/20 08:43:58;;;;;;;4.70;1.15;;;9.30;83.40;;;;;;4796760;29;87622;-74
2022/11/20 08:46:30;;;;;;;3.47;1.52;;;9.30;82.50;;;;;;4799902;29;86567;-76
2022/11/20 08:48:56;;;;;;;4.18;1.17;;;9.30;82.10;;;;;;4789865;29;86663;-76
2022/11/20 08:51:22;;;;;;;3.25;0.80;;;9.40;82.80;;;;;;4804270;29;88008;-75
2022/11/20 08:53:48;;;;;;;3.22;1.00;;;9.50;82.30;;;;;;4797429;29;87400;-76
2022/11/20 08:56:14;;;;;;;4.10;1.10;;;9.40;82.10;;;;;;4797521;29;86337;-75
2022/11/20 08:58:40;;;;;;;4.82;1.40;;;9.40;82.80;;;;;;4806209;29;87040;-76
2022/11/20 09:01:06;;;;;;;3.53;1.50;;;9.50;82.80;;;;;;4809598;29;86918;-75
2022/11/20 09:03:32;;;;;;;6.57;1.70;;;9.70;82.40;;;;;;4814038;29;86832;-75
2022/11/20 09:06:00;;;;;;;3.40;1.20;;;10.00;82.00;;;;;;4797707;29;86683;-75
2022/11/20 09:08:26;;;;;;;3.75;1.10;;;10.20;80.60;;;;;;4806576;29;86707;-75
2022/11/20 09:10:52;;;;;;;4.47;1.27;;;10.50;79.80;;;;;;4805561;29;87115;-75
2022/11/20 09:13:19;;;;;;;2.95;1.08;;;10.60;80.10;;;;;;4801863;29;87280;-75
2022/11/20 09:15:45;;;;;;;2.15;0.90;;;10.80;78.80;;;;;;4805018;29;87852;-76
2022/11/20 09:18:10;;;;;;;3.58;1.02;;;11.90;77.30;;;;;;4810928;29;86239;-76
2022/11/20 09:20:36;;;;;;;3.35;0.90;;;12.40;73.10;;;;;;4809439;29;87793;-74
2022/11/20 09:23:02;;;;;;;3.22;0.90;;;12.30;72.70;;;;;;4814189;29;86992;-76
2022/11/20 09:25:28;;;;;;;3.83;1.10;;;12.20;74.10;;;;;;4809052;29;87031;-75
2022/11/20 09:27:58;;;;;;;3.38;0.90;;;13.00;73.90;;;;;;4803001;29;87489;-75
2022/11/20 09:30:24;;;;;;;2.90;1.10;;;13.30;69.70;;;;;;4818325;29;87539;-75
2022/11/20 09:32:49;;;;;;;3.22;0.98;;;13.00;70.70;;;;;;4812335;29;86790;-75
2022/11/20 09:35:15;;;;;;;2.35;0.70;;;12.80;70.80;;;;;;4804075;29;86739;-75
2022/11/20 09:37:41;;;;;;;2.60;0.85;;;13.00;67.90;;;;;;4803804;29;86410;-76
2022/11/20 09:40:17;;;;;;;2.70;1.27;;;12.90;67.30;;;;;;4803570;29;87446;-75
2022/11/20 09:43:09;;;;;;;1.63;0.55;;;12.90;68.60;;;;;;4804601;29;87330;-75
2022/11/20 09:45:50;;;;;;;2.65;0.45;;;14.00;65.60;;;;;;4810127;29;86474;-74
2022/11/20 09:48:45;;;;;;;1.60;0.60;;;14.40;63.30;;;;;;4809776;29;86319;-75
2022/11/20 09:51:38;;;;;;;1.95;0.63;;;17.00;57.10;;;;;;4802841;29;87105;-75
2022/11/20 09:54:17;;;;;;;2.17;0.82;;;17.90;55.00;;;;;;4806589;29;88257;-75
2022/11/20 09:56:47;;;;;;;3.13;1.27;;;20.30;52.70;;;;;;4807921;29;86466;-76
2022/11/20 09:59:32;;;;;;;2.08;0.75;;;21.60;49.80;;;;;;4801339;29;86081;-76
2022/11/20 10:01:59;;;;;;;2.40;0.90;;;20.90;48.50;;;;;;4799831;29;88870;-75
2022/11/20 10:04:25;;;;;;;3.53;0.85;;;19.50;50.30;;;;;;4797596;29;87248;-75
2022/11/20 10:07:06;;;;;;;2.97;0.63;;;18.00;52.90;;;;;;4801445;29;87331;-76
2022/11/20 10:09:39;;;;;;;1.77;0.63;;;16.60;55.90;;;;;;4802248;29;86759;-75
2022/11/20 10:12:49;;;;;;;2.58;0.77;;;15.50;58.80;;;;;;4800649;29;87062;-77
2022/11/20 10:15:49;;;;;;;2.95;1.20;;;14.70;61.20;;;;;;4799582;29;87145;-75
2022/11/20 10:18:23;;;;;;;3.40;0.63;;;14.00;63.50;;;;;;4799363;29;87497;-76
2022/11/20 10:21:09;;;;;;;2.22;0.60;;;13.50;62.80;;;;;;4800521;29;86456;-75
2022/11/20 10:23:55;;;;;;;2.40;0.50;;;13.10;63.40;;;;;;4800765;29;87212;-75
2022/11/20 10:26:46;;;;;;;1.80;0.40;;;12.70;65.60;;;;;;4802435;29;87454;-75
2022/11/20 10:29:15;;;;;;;1.85;0.50;;;12.50;65.60;;;;;;4795296;29;87027;-75
2022/11/20 10:31:45;;;;;;;4.57;1.02;;;12.30;66.30;;;;;;4798258;29;86397;-75
2022/11/20 10:34:34;;;;;;;1.83;0.30;;;12.10;67.40;;;;;;4795511;29;88629;-74
2022/11/20 10:37:11;;;;;;;1.13;0.20;;;12.00;66.50;;;;;;4796228;29;87651;-75
2022/11/20 10:40:03;;;;;;;1.80;0.22;;;11.90;66.70;;;;;;4803357;29;86653;-75
2022/11/20 10:42:42;;;;;;;0.82;0.20;;;11.80;66.00;;;;;;4785377;29;87733;-75
2022/11/20 10:45:29;;;;;;;2.17;0.50;;;11.80;65.30;;;;;;4798836;29;87931;-75
2022/11/20 10:48:19;;;;;;;1.20;0.20;;;11.80;65.30;;;;;;4799048;29;86869;-75
2022/11/20 10:50:58;;;;;;;0.98;0.20;;;11.80;64.50;;;;;;4801259;29;86963;-74
2022/11/20 10:53:30;;;;;;;1.25;0.20;;;11.50;65.50;;;;;;4800306;29;86330;-74
2022/11/20 10:56:09;;;;;;;2.20;0.25;;;11.40;66.30;;;;;;4798958;29;88305;-74
2022/11/20 10:58:45;;;;;;;0.90;0.20;;;11.10;67.80;;;;;;4809648;29;86405;-74
2022/11/20 11:01:18;;;;;;;1.70;0.10;;;11.00;68.70;;;;;;4806897;29;87259;-74
2022/11/20 11:03:44;;;;;;;2.75;0.22;;;11.00;68.40;;;;;;4812486;29;86889;-74
2022/11/20 11:06:37;;;;;;;2.17;0.40;;;11.10;68.20;;;;;;4801722;29;88673;-74
2022/11/20 11:09:12;;;;;;;2.53;0.38;;;11.10;67.80;;;;;;4797766;29;86859;-76
2022/11/20 11:11:38;;;;;;;2.45;0.60;;;11.10;68.00;;;;;;4795989;29;87151;-73
2022/11/20 11:14:06;;;;;;;2.47;0.40;;;11.10;68.70;;;;;;4800309;29;88041;-75
2022/11/20 11:16:32;;;;;;;1.02;0.30;;;11.00;69.20;;;;;;4794334;29;87027;-75
2022/11/20 11:19:14;;;;;;;2.17;0.20;;;11.00;68.80;;;;;;4801906;29;87064;-74
2022/11/20 11:21:50;;;;;;;0.88;0.10;;;11.10;68.40;;;;;;4795361;29;86769;-77
2022/11/20 11:24:24;;;;;;;1.30;0.20;;;11.30;66.30;;;;;;4801956;29;86347;-76
2022/11/20 11:27:12;;;;;;;1.38;0.10;;;11.50;66.40;;;;;;4800388;29;88193;-76
2022/11/20 11:29:38;;;;;;;0.95;0.17;;;11.70;65.40;;;;;;4799291;29;87769;-76
2022/11/20 11:32:21;;;;;;;1.17;0.20;;;11.80;67.60;;;;;;4800430;29;87971;-76
2022/11/20 11:35:04;;;;;;;1.38;0.15;;;11.90;66.90;;;;;;4802585;29;88186;-76
2022/11/20 11:37:35;;;;;;;9.85;4.18;;;12.10;64.50;;;;;;4802611;29;86766;-76
2022/11/20 11:40:02;;;;;;;3.83;1.20;;;12.20;63.70;;;;;;4785049;29;88416;-76
2022/11/20 11:42:29;;;;;;;1.45;0.20;;;12.20;62.80;;;;;;4801942;29;88221;-75
2022/11/20 11:45:06;;;;;;;1.17;0.20;;;12.30;63.20;;;;;;4801599;29;86073;-77
2022/11/20 11:47:45;;;;;;;2.53;0.20;;;12.30;63.30;;;;;;4797515;29;87925;-75
2022/11/20 11:50:11;;;;;;;1.80;0.28;;;12.50;63.90;;;;;;4801521;29;87094;-76
2022/11/20 11:52:55;;;;;;;1.20;0.10;;;12.40;63.00;;;;;;4805677;29;88153;-75
2022/11/20 11:55:30;;;;;;;0.80;0.10;;;12.40;64.70;;;;;;4796308;29;86363;-76
2022/11/20 11:58:01;;;;;;;1.42;0.40;;;12.50;64.90;;;;;;4803836;29;86590;-76
2022/11/20 12:00:27;;;;;;;1.58;0.30;;;12.60;64.90;;;;;;4801157;29;87027;-76
2022/11/20 12:03:05;;;;;;;2.47;0.20;;;12.60;65.00;;;;;;4800154;29;87158;-75
2022/11/20 12:05:35;;;;;;;1.50;0.10;;;12.70;64.40;;;;;;4797831;29;89069;-75
2022/11/20 12:08:15;;;;;;;1.15;0.20;;;12.80;63.90;;;;;;4800997;29;88294;-75
2022/11/20 12:10:48;;;;;;;1.80;0.20;;;12.80;62.00;;;;;;4804079;29;86221;-77
2022/11/20 12:13:14;;;;;;;2.35;0.10;;;12.60;61.10;;;;;;4798104;29;86420;-75
2022/11/20 12:15:45;;;;;;;1.27;0.35;;;12.60;62.40;;;;;;4802609;29;87115;-74
2022/11/20 12:18:20;;;;;;;3.08;1.20;;;12.50;63.60;;;;;;4802141;29;89284;-76
2022/11/20 12:20:57;;;;;;;2.47;0.35;;;12.50;63.90;;;;;;4798111;29;87102;-77
2022/11/20 12:23:44;;;;;;;1.80;0.22;;;12.20;64.50;;;;;;4799015;29;86310;-75
2022/11/20 12:26:38;;;;;;;2.22;0.98;;;12.00;65.30;;;;;;4800093;29;86922;-75
2022/11/20 12:29:25;;;;;;;0.98;0.20;;;12.10;65.60;;;;;;4801525;29;86918;-75
2022/11/20 12:32:28;;;;;;;1.23;0.22;;;12.20;64.60;;;;;;4800755;29;87350;-74
2022/11/20 12:35:16;;;;;;;1.95;0.30;;;12.10;65.40;;;;;;4804874;29;86915;-74
2022/11/20 12:37:48;;;;;;;1.00;0.20;;;12.10;65.50;;;;;;4802974;29;86619;-75
2022/11/20 12:40:56;;;;;;;2.03;0.20;;;12.10;67.20;;;;;;4800666;29;86622;-75
2022/11/20 12:46:21;;;;;;;1.77;0.32;;;12.20;65.00;;;;;;4798397;29;87353;-79
2022/11/20 12:49:10;;;;;;;1.08;0.20;;;12.10;63.40;;;;;;4794901;29;86482;-76
2022/11/20 12:51:41;;;;;;;1.92;0.10;;;12.10;64.60;;;;;;4800079;29;87353;-78
2022/11/20 12:54:52;;;;;;;1.08;0.20;;;12.20;64.20;;;;;;4796546;29;87719;-75
2022/11/20 12:57:59;;;;;;;1.48;0.20;;;12.30;63.80;;;;;;4779642;29;86774;-75
2022/11/20 13:00:25;;;;;;;0.88;0.10;;;12.10;64.00;;;;;;4800312;29;86793;-74
2022/11/20 13:02:56;;;;;;;1.45;0.10;;;12.20;62.50;;;;;;4794778;29;87273;-76
2022/11/20 13:05:51;;;;;;;0.93;0.15;;;12.20;63.70;;;;;;4795342;29;87138;-75
2022/11/20 13:08:27;;;;;;;0.73;0.10;;;12.30;63.70;;;;;;4792363;29;86651;-75
2022/11/20 13:11:19;;;;;;;1.95;0.10;;;12.40;62.40;;;;;;4795285;29;87076;-75
2022/11/20 13:14:06;;;;;;;0.90;0.13;;;12.40;61.80;;;;;;4797559;29;87752;-76
2022/11/20 13:17:05;;;;;;;0.90;0.10;;;12.40;63.20;;;;;;4797065;29;87736;-75
2022/11/20 13:19:31;;;;;;;2.47;0.30;;;12.40;62.40;;;;;;4796262;29;86944;-74
2022/11/20 13:21:57;;;;;;;1.88;0.22;;;12.30;64.20;;;;;;4803650;29;86895;-76
2022/11/20 13:24:29;;;;;;;0.88;0.10;;;12.30;63.50;;;;;;4798651;29;88587;-74
2022/11/20 13:27:14;;;;;;;0.93;0.10;;;12.40;64.20;;;;;;4795700;29;87583;-77
2022/11/20 13:29:45;;;;;;;1.88;0.08;;;12.30;63.60;;;;;;4813626;29;86808;-77
2022/11/20 13:32:15;;;;;;;0.55;0.10;;;12.40;63.70;;;;;;4806585;29;86073;-78
2022/11/20 13:34:53;;;;;;;2.38;0.10;;;12.50;61.50;;;;;;4808343;29;88094;-79
2022/11/20 13:37:45;;;;;;;1.55;0.20;;;12.50;61.00;;;;;;4803698;29;87327;-79
2022/11/20 13:40:10;;;;;;;2.45;0.17;;;12.60;61.80;;;;;;4804640;29;88100;-79
2022/11/20 13:42:43;;;;;;;1.27;0.30;;;12.60;62.20;;;;;;4804500;29;86346;-79
2022/11/20 13:45:21;;;;;;;0.70;0.10;;;12.60;60.80;;;;;;4802051;29;87287;-80
2022/11/20 13:47:52;;;;;;;1.25;0.20;;;12.50;61.10;;;;;;4800069;29;86922;-79
2022/11/20 13:50:19;;;;;;;5.45;2.97;;;12.40;61.10;;;;;;4806814;29;88004;-78
2022/11/20 13:53:10;;;;;;;23.33;13.35;;;12.40;61.80;;;;;;4803821;29;86776;-80
2022/11/20 13:55:59;;;;;;;8.77;4.38;;;12.20;62.10;;;;;;4794203;29;88810;-78
2022/11/20 13:58:52;;;;;;;2.88;0.50;;;12.00;62.00;;;;;;4800041;29;87018;-78
2022/11/20 14:01:29;;;;;;;1.23;0.20;;;11.80;62.70;;;;;;4784745;29;87198;-77
2022/11/20 14:03:55;;;;;;;0.55;0.10;;;11.80;63.30;;;;;;4802421;29;86315;-77
2022/11/20 14:06:31;;;;;;;1.10;0.20;;;11.70;62.60;;;;;;4810388;29;88219;-78
2022/11/20 14:08:57;;;;;;;0.60;0.10;;;11.50;62.70;;;;;;4804889;29;88432;-78
2022/11/20 14:11:28;;;;;;;1.25;0.20;;;11.50;62.20;;;;;;4799530;29;87152;-78
2022/11/20 14:14:05;;;;;;;2.25;0.40;;;11.40;62.90;;;;;;4806065;29;86920;-78
2022/11/20 14:16:35;;;;;;;1.60;0.15;;;11.30;62.30;;;;;;4803913;29;87361;-78
2022/11/20 14:19:19;;;;;;;0.52;0.10;;;11.20;63.40;;;;;;4805346;29;86361;-77
2022/11/20 14:21:50;;;;;;;1.33;0.22;;;11.10;63.70;;;;;;4805759;29;86606;-77
2022/11/20 14:24:23;;;;;;;1.60;0.30;;;11.00;64.10;;;;;;4807217;29;85549;-78
2022/11/20 14:26:51;;;;;;;2.03;0.40;;;11.00;63.40;;;;;;4808699;29;87557;-77
2022/11/20 14:29:21;;;;;;;8.45;1.00;;;11.00;64.00;;;;;;4801493;29;86306;-78
2022/11/20 14:31:52;;;;;;;0.88;0.10;;;10.90;67.70;;;;;;4806156;29;87450;-77
2022/11/20 14:34:25;;;;;;;2.13;0.40;;;10.80;64.00;;;;;;4799117;29;86855;-78
2022/11/20 14:37:03;;;;;;;2.13;0.25;;;10.90;64.30;;;;;;4804188;29;87437;-78
2022/11/20 14:39:34;;;;;;;1.30;0.10;;;10.90;64.50;;;;;;4807979;29;86812;-77
2022/11/20 14:42:00;;;;;;;0.75;0.08;;;10.90;64.30;;;;;;4802280;29;86850;-78
2022/11/20 14:44:30;;;;;;;1.10;0.10;;;10.70;63.60;;;;;;4799064;29;87047;-78
2022/11/20 14:46:57;;;;;;;1.80;0.10;;;10.70;63.50;;;;;;4807985;29;87657;-78
2022/11/20 14:49:24;;;;;;;1.42;0.10;;;10.80;64.20;;;;;;4806002;29;87133;-78
2022/11/20 14:52:00;;;;;;;2.53;0.20;;;10.80;63.90;;;;;;4806247;29;86983;-77
2022/11/20 14:54:26;;;;;;;1.08;0.20;;;10.70;63.70;;;;;;4808541;29;86331;-77
2022/11/20 14:57:03;;;;;;;2.00;0.30;;;10.60;64.40;;;;;;4808002;29;88240;-78
2022/11/20 14:59:33;;;;;;;;;;;10.50;64.70;;;;;;4802328;29;88000;-76
2022/11/20 15:02:05;;;;;;;1.33;0.10;;;10.30;62.50;;;;;;4802682;29;86442;-78
2022/11/20 15:04:31;;;;;;;0.40;0.00;;;10.20;63.50;;;;;;4798895;29;87216;-78
2022/11/20 15:06:59;;;;;;;1.02;0.10;;;10.00;62.30;;;;;;4805562;29;88601;-78
2022/11/20 15:09:25;;;;;;;0.88;0.10;;;9.80;62.80;;;;;;4807132;29;87192;-77
2022/11/20 15:12:00;;;;;;;0.80;0.20;;;9.70;63.30;;;;;;4801735;29;87985;-78
2022/11/20 15:14:28;;;;;;;0.90;0.10;;;9.60;64.10;;;;;;4808226;29;87928;-78
2022/11/20 15:16:54;;;;;;;0.50;0.00;;;9.50;64.10;;;;;;4798304;29;87886;-78
2022/11/20 15:19:26;;;;;;;1.05;0.10;;;9.40;64.00;;;;;;4800786;29;86977;-78
2022/11/20 15:21:52;;;;;;;1.35;0.10;;;9.30;64.90;;;;;;4813841;29;87612;-78
2022/11/20 15:24:18;;;;;;;0.68;0.05;;;9.20;65.10;;;;;;4798006;29;86351;-78
2022/11/20 15:26:44;;;;;;;0.73;0.03;;;9.10;65.90;;;;;;4802647;29;87867;-78
2022/11/20 15:29:12;;;;;;;1.23;0.28;;;9.10;65.70;;;;;;4811373;29;87099;-78
2022/11/20 15:31:41;;;;;;;1.70;0.38;;;9.00;66.30;;;;;;4807048;29;86400;-78
2022/11/20 15:34:14;;;;;;;0.93;0.10;;;8.90;66.80;;;;;;4812368;29;86708;-78
2022/11/20 15:36:41;;;;;;;0.70;0.10;;;8.90;67.00;;;;;;4796622;29;87734;-78
2022/11/20 15:39:07;;;;;;;1.58;0.13;;;8.80;67.30;;;;;;4802832;29;87150;-78
2022/11/20 15:41:41;;;;;;;1.13;0.20;;;8.80;66.90;;;;;;4807718;29;87680;-78
2022/11/20 15:44:07;;;;;;;1.38;0.20;;;8.80;67.20;;;;;;4803547;29;86965;-78
2022/11/20 15:46:41;;;;;;;0.60;0.10;;;8.70;68.20;;;;;;4809397;29;87697;-78
2022/11/20 15:49:12;;;;;;;2.15;0.20;;;8.60;68.50;;;;;;4813683;29;88023;-77
2022/11/20 15:51:47;;;;;;;1.05;0.10;;;8.40;69.00;;;;;;4805844;29;86899;-78
2022/11/20 15:54:19;;;;;;;1.00;0.15;;;8.40;68.10;;;;;;4807579;29;86737;-78
2022/11/20 15:56:46;;;;;;;0.80;0.20;;;8.30;68.30;;;;;;4804327;29;87084;-78
2022/11/20 15:59:14;;;;;;;1.70;0.30;;;8.20;68.60;;;;;;4812005;29;86698;-79
2022/11/20 16:01:41;;;;;;;1.98;0.40;;;8.20;68.30;;;;;;4804379;29;86900;-79
2022/11/20 16:04:11;;;;;;;1.35;0.30;;;8.20;68.20;;;;;;4802051;29;86007;-78
2022/11/20 16:06:37;;;;;;;0.70;0.10;;;8.10;68.50;;;;;;4805226;29;86850;-79
2022/11/20 16:09:03;;;;;;;0.80;0.10;;;8.10;68.10;;;;;;4810414;29;87062;-77
2022/11/20 16:11:29;;;;;;;0.73;0.10;;;8.00;68.00;;;;;;4793965;29;87967;-77
2022/11/20 16:16:40;;;;;;;1.25;0.20;;;8.00;69.30;;;;;;4806411;29;86360;-80
2022/11/20 16:19:06;;;;;;;0.95;0.10;;;8.00;70.50;;;;;;4802420;29;86805;-81
2022/11/20 16:21:31;;;;;;;1.00;0.10;;;7.90;70.90;;;;;;4800966;29;86917;-80
2022/11/20 16:24:02;;;;;;;1.08;0.10;;;7.80;70.20;;;;;;4806130;29;86349;-80
2022/11/20 16:26:28;;;;;;;1.13;0.20;;;7.80;70.50;;;;;;4801818;29;87237;-80
2022/11/20 16:28:55;;;;;;;1.80;0.20;;;7.70;71.00;;;;;;4811415;29;87281;-79
2022/11/20 16:31:21;;;;;;;3.92;0.32;;;7.70;71.10;;;;;;4798941;29;88351;-78
2022/11/20 16:33:58;;;;;;;1.23;0.20;;;7.60;73.10;;;;;;4809994;29;86512;-78
2022/11/20 16:36:24;;;;;;;;;;;7.60;72.50;;;;;;4805493;29;89138;-78
2022/11/20 16:38:54;;;;;;;2.97;0.22;;;7.50;73.20;;;;;;4816257;29;87031;-81
2022/11/20 16:41:21;;;;;;;2.58;0.30;;;7.40;73.30;;;;;;4809624;29;86189;-80
2022/11/20 16:43:49;;;;;;;1.55;0.22;;;7.40;73.00;;;;;;4806103;29;86627;-80
2022/11/20 16:46:20;;;;;;;4.70;0.50;;;7.40;73.70;;;;;;4810030;29;86585;-78
2022/11/20 16:49:03;;;;;;;3.20;0.30;;;7.30;74.90;;;;;;4815367;29;87624;-79
2022/11/20 16:51:30;;;;;;;3.13;0.85;;;7.30;75.20;;;;;;4808503;29;86264;-80
2022/11/20 16:53:56;;;;;;;4.60;1.63;;;7.30;76.30;;;;;;4814890;29;86302;-81
2022/11/20 16:56:26;;;;;;;4.53;1.60;;;7.40;76.80;;;;;;4812825;29;87824;-80
2022/11/20 16:58:54;;;;;;;4.63;1.27;;;7.30;77.50;;;;;;4807473;29;86989;-76
2022/11/20 17:01:22;;;;;;;6.10;1.80;;;7.30;78.10;;;;;;4798178;29;88101;-75
2022/11/20 17:03:55;;;;;;;6.03;1.85;;;7.30;78.60;;;;;;4801427;29;87458;-75
2022/11/20 17:06:24;;;;;;;6.32;1.85;;;7.30;79.00;;;;;;4794702;29;87106;-75
2022/11/20 17:08:49;;;;;;;6.22;1.80;;;7.30;79.30;;;;;;4794379;29;87503;-76
2022/11/20 17:11:17;;;;;;;5.53;1.67;;;7.30;79.80;;;;;;4793584;29;86810;-76
2022/11/20 17:13:44;;;;;;;5.47;1.50;;;7.30;80.00;;;;;;4803544;29;87001;-75
2022/11/20 17:16:12;;;;;;;5.22;1.50;;;7.20;80.20;;;;;;4804248;29;86624;-76
2022/11/20 17:18:39;;;;;;;6.70;2.15;;;7.20;80.50;;;;;;4799103;29;87120;-75
2022/11/20 17:21:06;;;;;;;6.00;2.25;;;7.20;81.10;;;;;;4800856;29;86810;-75
2022/11/20 17:23:37;;;;;;;7.53;2.55;;;7.20;81.80;;;;;;4797537;29;87023;-75
2022/11/20 17:26:12;;;;;;;8.02;2.58;;;7.20;81.60;;;;;;4798018;29;89321;-77
2022/11/20 17:28:38;;;;;;;8.57;3.20;;;7.20;82.00;;;;;;4798084;29;87156;-75
2022/11/20 17:31:08;;;;;;;10.27;2.83;;;7.20;81.10;;;;;;4797865;29;87594;-77
2022/11/20 17:33:35;;;;;;;11.45;4.93;;;7.20;81.40;;;;;;4800094;29;86381;-75
2022/11/20 17:36:02;;;;;;;15.32;6.32;;;7.20;81.50;;;;;;4806385;29;86613;-75
2022/11/20 17:38:27;;;;;;;11.65;5.18;;;7.10;81.90;;;;;;4804271;29;87167;-77
2022/11/20 17:41:00;;;;;;;12.07;5.28;;;7.10;82.50;;;;;;4801759;29;87151;-76
2022/11/20 17:43:26;;;;;;;11.25;4.55;;;7.10;81.80;;;;;;4800942;29;86204;-76
2022/11/20 17:45:52;;;;;;;14.95;5.25;;;7.10;81.90;;;;;;4801267;29;87189;-76
2022/11/20 17:48:17;;;;;;;13.13;5.78;;;7.10;82.00;;;;;;4797365;29;87034;-76
2022/11/20 17:50:43;;;;;;;12.02;5.82;;;7.00;82.20;;;;;;4802127;29;88000;-76
2022/11/20 17:53:09;;;;;;;13.65;6.25;;;7.00;82.30;;;;;;4800355;29;86439;-75
2022/11/20 17:57:51;;;;;;;19.50;7.28;;;6.90;82.20;;;;;;4800892;29;87844;-76
2022/11/20 17:58:20;;;;;;;14.60;5.82;;;7.00;84.20;;;;;;4797922;29;87949;-75
2022/11/20 18:00:45;;;;;;;15.38;6.75;;;7.00;82.80;;;;;;4802289;29;86972;-76
2022/11/20 18:03:11;;;;;;;13.98;5.78;;;7.00;82.50;;;;;;4801797;29;87120;-76
2022/11/20 18:05:37;;;;;;;12.45;6.18;;;7.00;82.80;;;;;;4798630;29;87303;-76
2022/11/20 18:08:02;;;;;;;10.55;4.78;;;7.00;82.90;;;;;;4804935;29;87007;-77
2022/11/20 18:10:29;;;;;;;14.52;5.00;;;6.90;82.80;;;;;;4800213;29;86611;-76
2022/11/20 18:12:55;;;;;;;11.40;2.50;;;6.80;83.10;;;;;;4800022;29;87329;-76
2022/11/20 18:15:21;;;;;;;22.48;3.05;;;6.80;84.70;;;;;;4797943;29;88417;-75
2022/11/20 18:17:47;;;;;;;4.38;1.10;;;7.00;90.10;;;;;;4799332;29;87235;-75
2022/11/20 18:20:12;;;;;;;5.35;0.88;;;7.20;85.70;;;;;;4797628;29;87263;-76
2022/11/20 18:22:38;;;;;;;6.45;2.38;;;7.40;82.80;;;;;;4800320;29;86903;-75